createdAt,value
2018-10-16T00:01:02.934Z,12.63
2018-10-16T00:03:31.240Z,13.07
2018-10-16T00:05:59.585Z,17.80
2018-10-16T00:08:27.972Z,15.93
2018-10-16T00:10:56.306Z,14.07
2018-10-16T00:13:24.564Z,14.40
2018-10-16T00:15:52.900Z,18.67
2018-10-16T00:18:21.196Z,16.53
2018-10-16T00:20:49.526Z,15.50
2018-10-16T00:23:17.781Z,18.67
2018-10-16T00:25:46.078Z,15.57
2018-10-16T00:28:14.375Z,17.30
2018-10-16T00:30:42.730Z,15.80
2018-10-16T00:33:11.039Z,20.60
2018-10-16T00:35:39.330Z,16.27
2018-10-16T00:38:07.634Z,17.40
2018-10-16T00:40:36.244Z,18.93
2018-10-16T00:43:04.642Z,16.77
2018-10-16T00:45:32.886Z,18.50
2018-10-16T00:48:01.269Z,19.83
2018-10-16T00:50:35.034Z,15.40
2018-10-16T00:53:03.373Z,17.80
2018-10-16T00:55:31.695Z,18.07
2018-10-16T00:58:01.037Z,18.73
2018-10-16T01:00:29.331Z,20.57
2018-10-16T01:02:57.678Z,20.20
2018-10-16T01:05:25.971Z,18.60
2018-10-16T01:07:54.266Z,18.13
2018-10-16T01:10:22.568Z,22.80
2018-10-16T01:12:50.965Z,19.93
2018-10-16T01:15:19.294Z,21.87
2018-10-16T01:17:47.630Z,22.20
2018-10-16T01:20:15.946Z,20.20
2018-10-16T01:22:45.347Z,18.10
2018-10-16T01:25:13.987Z,19.80
2018-10-16T01:27:42.288Z,17.10
2018-10-16T01:30:10.673Z,20.67
2018-10-16T01:32:39.137Z,18.60
2018-10-16T01:35:09.382Z,24.37
2018-10-16T01:37:37.677Z,22.30
2018-10-16T01:40:07.309Z,22.10
2018-10-16T01:42:35.629Z,22.80
2018-10-16T01:45:04.008Z,23.50
2018-10-16T01:47:32.333Z,23.90
2018-10-16T01:50:00.618Z,25.73
2018-10-16T01:52:28.931Z,25.20
2018-10-16T01:54:57.295Z,22.90
2018-10-16T01:57:38.689Z,23.17
2018-10-16T02:00:08.118Z,25.30
2018-10-16T02:02:36.432Z,23.40
2018-10-16T02:05:05.717Z,27.87
2018-10-16T02:07:34.026Z,20.53
2018-10-16T02:10:02.291Z,22.67
2018-10-16T02:12:30.568Z,20.50
2018-10-16T02:14:58.871Z,20.03
2018-10-16T02:17:27.205Z,22.27
2018-10-16T02:19:55.504Z,19.50
2018-10-16T02:22:23.859Z,22.90
2018-10-16T02:24:52.146Z,22.63
2018-10-16T02:27:20.466Z,17.80
2018-10-16T02:29:48.751Z,22.63
2018-10-16T02:32:17.095Z,16.00
2018-10-16T02:34:45.383Z,20.60
2018-10-16T02:37:13.683Z,18.87
2018-10-16T02:39:41.969Z,18.33
2018-10-16T02:42:10.248Z,19.30
2018-10-16T02:44:38.611Z,20.67
2018-10-16T02:47:07.187Z,18.80
2018-10-16T02:49:35.503Z,23.27
2018-10-16T02:52:03.925Z,16.27
2018-10-16T02:54:32.347Z,17.77
2018-10-16T02:57:00.708Z,18.73
2018-10-16T02:59:29.029Z,19.33
2018-10-16T03:01:57.385Z,20.77
2018-10-16T03:04:25.652Z,19.57
2018-10-16T03:06:53.984Z,17.77
2018-10-16T03:09:22.210Z,16.83
2018-10-16T03:11:50.564Z,15.30
2018-10-16T03:14:18.861Z,18.67
2018-10-16T03:16:47.182Z,17.50
2018-10-16T03:19:15.450Z,19.30
2018-10-16T03:21:43.722Z,18.10
2018-10-16T03:24:12.003Z,20.27
2018-10-16T03:26:40.339Z,16.43
2018-10-16T03:29:09.496Z,21.63
2018-10-16T03:31:41.598Z,15.10
2018-10-16T03:34:09.954Z,22.10
2018-10-16T03:36:39.068Z,18.60
2018-10-16T03:39:08.985Z,18.23
2018-10-16T03:41:37.329Z,17.37
2018-10-16T03:44:12.219Z,22.77
2018-10-16T03:46:40.568Z,20.27
2018-10-16T03:49:09.654Z,17.47
2018-10-16T03:51:38.140Z,17.20
2018-10-16T03:54:06.506Z,17.30
2018-10-16T03:56:34.845Z,19.57
2018-10-16T03:59:03.180Z,20.80
2018-10-16T04:01:31.516Z,20.50
2018-10-16T04:03:59.766Z,17.67
2018-10-16T04:06:28.068Z,21.17
2018-10-16T04:08:56.457Z,16.97
2018-10-16T04:11:24.825Z,19.13
2018-10-16T04:13:53.091Z,17.70
2018-10-16T04:16:21.377Z,17.70
2018-10-16T04:18:49.729Z,20.20
2018-10-16T04:21:17.991Z,17.17
2018-10-16T04:23:46.243Z,16.77
2018-10-16T04:26:18.307Z,18.07
2018-10-16T04:28:46.643Z,17.60
2018-10-16T04:31:15.013Z,22.43
2018-10-16T04:33:43.335Z,19.63
2018-10-16T04:36:11.612Z,18.57
2018-10-16T04:38:39.942Z,17.17
2018-10-16T04:41:08.299Z,20.23
2018-10-16T04:43:36.646Z,22.43
2018-10-16T04:46:04.931Z,21.77
2018-10-16T04:48:33.197Z,22.17
2018-10-16T04:51:01.497Z,22.47
2018-10-16T04:53:29.812Z,22.33
2018-10-16T04:55:58.192Z,21.10
2018-10-16T04:58:26.500Z,23.20
2018-10-16T05:00:54.817Z,22.20
2018-10-16T05:03:23.091Z,19.97
2018-10-16T05:05:51.358Z,20.80
2018-10-16T05:08:19.658Z,19.10
2018-10-16T05:10:51.488Z,20.50
2018-10-16T05:13:19.844Z,24.13
2018-10-16T05:15:48.112Z,20.70
2018-10-16T05:18:16.390Z,24.00
2018-10-16T05:20:44.692Z,22.23
2018-10-16T05:23:19.754Z,34.53
2018-10-16T05:25:48.072Z,24.90
2018-10-16T05:28:16.329Z,26.80
2018-10-16T05:30:44.630Z,25.30
2018-10-16T05:33:12.949Z,27.63
2018-10-16T05:35:41.285Z,22.37
2018-10-16T05:38:09.589Z,32.17
2018-10-16T05:40:37.877Z,27.83
2018-10-16T05:43:19.774Z,27.30
2018-10-16T05:45:48.074Z,28.33
2018-10-16T05:48:16.392Z,25.33
2018-10-16T05:50:51.190Z,21.43
2018-10-16T05:53:19.562Z,21.67
2018-10-16T05:55:55.270Z,27.53
2018-10-16T05:58:26.889Z,28.80
2018-10-16T06:00:55.179Z,27.27
2018-10-16T06:03:23.490Z,24.00
2018-10-16T06:05:51.711Z,28.90
2018-10-16T06:08:22.151Z,23.70
2018-10-16T06:10:50.401Z,25.60
2018-10-16T06:13:18.726Z,29.43
2018-10-16T06:15:47.032Z,32.00
2018-10-16T06:18:16.475Z,27.23
2018-10-16T06:20:44.794Z,25.87
2018-10-16T06:23:13.048Z,32.10
2018-10-16T06:25:41.302Z,31.10
2018-10-16T06:28:19.615Z,33.67
2018-10-16T06:30:48.243Z,24.27
2018-10-16T06:33:18.907Z,30.60
2018-10-16T06:35:56.802Z,27.90
2018-10-16T06:38:25.114Z,26.40
2018-10-16T06:40:53.563Z,30.87
2018-10-16T06:43:21.819Z,24.47
2018-10-16T06:45:50.130Z,32.50
2018-10-16T06:48:18.867Z,26.90
2018-10-16T06:50:46.720Z,26.40
2018-10-16T06:53:15.089Z,29.53
2018-10-16T06:55:43.369Z,32.43
2018-10-16T06:58:17.059Z,30.47
2018-10-16T07:00:45.368Z,26.67
2018-10-16T07:03:13.694Z,30.27
2018-10-16T07:05:41.988Z,29.53
2018-10-16T07:08:15.726Z,28.07
2018-10-16T07:10:44.002Z,32.03
2018-10-16T07:13:12.401Z,42.73
2018-10-16T07:15:40.829Z,42.43
2018-10-16T07:18:09.122Z,43.73
2018-10-16T07:20:44.661Z,49.20
2018-10-16T07:23:12.989Z,39.83
2018-10-16T07:25:41.224Z,38.70
2018-10-16T07:28:09.520Z,41.87
2018-10-16T07:30:37.844Z,43.63
2018-10-16T07:33:06.149Z,38.63
2018-10-16T07:35:36.526Z,39.27
2018-10-16T07:38:05.245Z,32.93
2018-10-16T07:40:33.399Z,39.87
2018-10-16T07:43:01.704Z,30.97
2018-10-16T07:45:30.054Z,31.57
2018-10-16T07:47:58.356Z,30.80
2018-10-16T07:50:28.738Z,27.03
2018-10-16T07:52:57.063Z,24.70
2018-10-16T07:55:25.433Z,25.43
2018-10-16T07:57:53.742Z,21.17
2018-10-16T08:00:22.033Z,23.90
2018-10-16T08:02:50.331Z,22.67
2018-10-16T08:05:20.708Z,29.67
2018-10-16T08:07:49.010Z,23.13
2018-10-16T08:10:17.334Z,31.07
2018-10-16T08:12:45.744Z,23.97
2018-10-16T08:15:14.038Z,23.30
2018-10-16T08:17:42.318Z,23.30
2018-10-16T08:20:10.794Z,19.83
2018-10-16T08:22:39.277Z,21.77
2018-10-16T08:25:07.631Z,24.10
2018-10-16T08:27:36.161Z,20.43
2018-10-16T08:30:05.022Z,24.13
2018-10-16T08:32:33.299Z,18.83
2018-10-16T08:35:01.636Z,19.30
2018-10-16T08:39:52.116Z,23.83
2018-10-16T08:42:33.755Z,20.90
2018-10-16T08:45:15.196Z,25.83
2018-10-16T08:47:55.118Z,19.17
2018-10-16T08:50:36.009Z,24.07
2018-10-16T08:53:04.451Z,21.80
2018-10-16T08:55:36.422Z,19.33
2018-10-16T08:58:05.525Z,19.30
2018-10-16T09:00:34.638Z,24.13
2018-10-16T09:03:03.052Z,19.70
2018-10-16T09:05:31.423Z,19.53
2018-10-16T09:08:00.791Z,21.00
2018-10-16T09:10:29.099Z,20.17
2018-10-16T09:12:57.476Z,20.80
2018-10-16T09:15:29.306Z,17.80
2018-10-16T09:17:57.589Z,23.23
2018-10-16T09:20:25.916Z,18.00
2018-10-16T09:22:54.235Z,18.00
2018-10-16T09:25:22.577Z,22.67
2018-10-16T09:27:51.971Z,18.80
2018-10-16T09:30:20.335Z,18.50
2018-10-16T09:32:48.657Z,18.63
2018-10-16T09:35:19.025Z,19.73
2018-10-16T09:37:47.477Z,21.33
2018-10-16T09:40:15.751Z,16.97
2018-10-16T09:42:51.113Z,18.33
2018-10-16T09:45:19.535Z,17.50
2018-10-16T09:47:47.834Z,17.63
2018-10-16T09:50:16.267Z,16.20
2018-10-16T09:52:44.622Z,17.20
2018-10-16T09:55:12.947Z,19.00
2018-10-16T09:57:41.252Z,18.90
2018-10-16T10:00:20.741Z,16.57
2018-10-16T10:02:49.024Z,15.53
2018-10-16T10:05:17.484Z,18.90
2018-10-16T10:07:45.777Z,14.13
2018-10-16T10:10:14.086Z,15.63
2018-10-16T10:12:43.442Z,14.30
2018-10-16T10:15:11.782Z,18.00
2018-10-16T10:17:40.089Z,16.37
2018-10-16T10:20:08.668Z,15.93
2018-10-16T10:22:37.302Z,19.20
2018-10-16T10:25:06.299Z,17.10
2018-10-16T10:27:36.686Z,14.87
2018-10-16T10:30:06.462Z,14.03
2018-10-16T10:32:34.772Z,15.50
2018-10-16T10:35:03.117Z,15.67
2018-10-16T10:37:45.334Z,13.87
2018-10-16T10:40:13.657Z,13.47
2018-10-16T10:42:41.903Z,14.43
2018-10-16T10:45:10.302Z,15.23
2018-10-16T10:47:45.314Z,13.37
2018-10-16T10:50:14.574Z,18.27
2018-10-16T10:52:46.569Z,14.60
2018-10-16T10:55:14.889Z,13.37
2018-10-16T10:57:43.199Z,11.60
2018-10-16T11:00:13.062Z,14.80
2018-10-16T11:02:42.289Z,14.60
2018-10-16T11:05:11.265Z,12.30
2018-10-16T11:07:39.736Z,11.43
2018-10-16T11:10:10.436Z,11.73
2018-10-16T11:12:39.920Z,14.77
2018-10-16T11:15:08.526Z,12.33
2018-10-16T11:17:37.535Z,14.00
2018-10-16T11:20:08.090Z,12.83
2018-10-16T11:22:36.463Z,13.93
2018-10-16T11:25:05.986Z,12.63
2018-10-16T11:27:34.341Z,10.13
2018-10-16T11:30:02.667Z,10.90
2018-10-16T11:32:30.955Z,9.80
2018-10-16T11:34:59.415Z,11.93
2018-10-16T11:37:27.727Z,13.30
2018-10-16T11:39:56.038Z,15.10
2018-10-16T11:42:24.315Z,10.77
2018-10-16T11:44:52.804Z,15.03
2018-10-16T11:47:21.095Z,14.77
2018-10-16T11:49:49.422Z,13.40
2018-10-16T11:52:22.647Z,11.47
2018-10-16T11:54:50.861Z,11.07
2018-10-16T11:57:19.189Z,13.00
2018-10-16T11:59:48.565Z,12.40
2018-10-16T12:02:16.956Z,11.20
2018-10-16T12:04:45.224Z,13.37
2018-10-16T12:07:13.675Z,13.20
2018-10-16T12:09:41.927Z,10.70
2018-10-16T12:12:10.318Z,12.23
2018-10-16T12:14:38.675Z,11.63
2018-10-16T12:17:17.256Z,10.00
2018-10-16T12:19:48.920Z,9.80
2018-10-16T12:22:17.215Z,12.27
2018-10-16T12:24:45.594Z,10.90
2018-10-16T12:27:13.989Z,10.70
2018-10-16T12:29:42.192Z,19.83
2018-10-16T12:32:10.479Z,11.00
2018-10-16T12:34:44.710Z,12.13
2018-10-16T12:37:15.143Z,10.70
2018-10-16T12:39:43.365Z,9.60
2018-10-16T12:42:11.737Z,9.20
2018-10-16T12:44:40.048Z,9.10
2018-10-16T12:47:08.484Z,9.77
2018-10-16T12:49:36.725Z,9.10
2018-10-16T12:52:05.011Z,9.80
2018-10-16T12:54:33.325Z,9.67
2018-10-16T12:57:02.853Z,11.43
2018-10-16T12:59:31.067Z,11.90
2018-10-16T13:01:59.414Z,11.30
2018-10-16T13:04:27.663Z,9.00
2018-10-16T13:06:56.016Z,10.93
2018-10-16T13:09:24.305Z,10.53
2018-10-16T13:11:57.396Z,9.70
2018-10-16T13:14:25.705Z,9.67
2018-10-16T13:17:15.009Z,11.27
2018-10-16T13:19:43.272Z,9.23
2018-10-16T13:22:11.656Z,9.60
2018-10-16T13:24:39.869Z,10.13
2018-10-16T13:27:08.306Z,13.90
2018-10-16T13:29:36.787Z,11.13
2018-10-16T13:32:05.052Z,10.47
2018-10-16T13:34:33.381Z,12.47
2018-10-16T13:37:01.733Z,9.70
2018-10-16T13:39:30.050Z,8.90
2018-10-16T13:41:58.363Z,13.30
2018-10-16T13:44:26.731Z,14.60
2018-10-16T13:47:01.829Z,9.57
2018-10-16T13:49:30.136Z,10.60
2018-10-16T13:51:58.382Z,13.67
2018-10-16T13:54:26.650Z,11.67
2018-10-16T13:56:55.000Z,11.93
2018-10-16T13:59:23.271Z,11.60
2018-10-16T14:01:51.591Z,10.20
2018-10-16T14:04:19.847Z,12.20
2018-10-16T14:06:48.153Z,14.50
2018-10-16T14:09:17.537Z,12.40
2018-10-16T14:11:46.926Z,12.47
2018-10-16T14:14:15.320Z,10.07
2018-10-16T14:16:43.592Z,10.57
2018-10-16T14:19:11.909Z,14.00
2018-10-16T14:21:40.302Z,11.83
2018-10-16T14:24:10.943Z,10.73
2018-10-16T14:26:39.408Z,13.73
2018-10-16T14:29:08.774Z,10.73
2018-10-16T14:31:40.760Z,8.90
2018-10-16T14:34:09.070Z,9.90
2018-10-16T14:36:37.410Z,11.63
2018-10-16T14:39:08.499Z,11.93
2018-10-16T14:41:36.988Z,11.13
2018-10-16T14:44:06.721Z,9.10
2018-10-16T14:46:35.097Z,10.70
2018-10-16T14:49:03.511Z,10.60
2018-10-16T14:51:33.606Z,11.37
2018-10-16T14:54:02.126Z,9.37
2018-10-16T14:56:30.627Z,11.13
2018-10-16T14:58:59.028Z,11.73
2018-10-16T15:01:27.402Z,9.40
2018-10-16T15:03:55.724Z,9.43
2018-10-16T15:06:24.012Z,9.13
2018-10-16T15:08:52.384Z,9.97
2018-10-16T15:11:20.737Z,8.90
2018-10-16T15:13:49.072Z,11.63
2018-10-16T15:16:17.488Z,10.17
2018-10-16T15:18:45.630Z,12.47
2018-10-16T15:21:13.998Z,9.90
2018-10-16T15:23:42.406Z,9.50
2018-10-16T15:26:10.692Z,13.70
2018-10-16T15:28:38.914Z,10.10
2018-10-16T15:31:07.322Z,11.47
2018-10-16T15:33:35.656Z,13.47
2018-10-16T15:36:06.146Z,8.77
2018-10-16T15:38:34.413Z,12.30
2018-10-16T15:41:02.730Z,12.83
2018-10-16T15:43:31.062Z,10.87
2018-10-16T15:45:59.481Z,10.30
2018-10-16T15:48:27.727Z,11.40
2018-10-16T15:50:56.027Z,9.50
2018-10-16T15:53:24.360Z,10.10
2018-10-16T15:55:52.710Z,12.20
2018-10-16T15:58:20.995Z,10.13
2018-10-16T16:00:49.284Z,17.97
2018-10-16T16:03:17.615Z,11.23
2018-10-16T16:05:45.952Z,14.00
2018-10-16T16:08:14.359Z,10.37
2018-10-16T16:10:42.611Z,10.60
2018-10-16T16:13:11.408Z,13.80
2018-10-16T16:15:39.965Z,9.70
2018-10-16T16:18:08.370Z,9.20
2018-10-16T16:20:36.658Z,10.13
2018-10-16T16:23:04.997Z,13.03
2018-10-16T16:25:33.348Z,10.07
2018-10-16T16:28:01.673Z,10.53
2018-10-16T16:30:29.926Z,11.23
2018-10-16T16:33:05.110Z,12.30
2018-10-16T16:35:33.414Z,14.13
2018-10-16T16:38:01.795Z,15.33
2018-10-16T16:40:30.086Z,12.83
2018-10-16T16:42:58.364Z,10.67
2018-10-16T16:45:26.708Z,11.83
2018-10-16T16:47:55.065Z,12.07
2018-10-16T16:50:23.360Z,13.40
2018-10-16T16:52:51.645Z,11.00
2018-10-16T16:55:19.964Z,10.90
2018-10-16T16:57:48.370Z,12.00
2018-10-16T17:00:16.690Z,12.43
2018-10-16T17:02:45.733Z,15.30
2018-10-16T17:05:17.253Z,15.40
2018-10-16T17:07:45.699Z,10.50
2018-10-16T17:10:14.055Z,17.60
2018-10-16T17:12:42.361Z,10.57
2018-10-16T17:15:12.831Z,10.27
2018-10-16T17:17:41.467Z,10.20
2018-10-16T17:20:11.383Z,10.90
2018-10-16T17:22:39.598Z,20.97
2018-10-16T17:25:09.614Z,13.87
2018-10-16T17:27:37.797Z,13.37
2018-10-16T17:30:09.103Z,9.73
2018-10-16T17:32:39.583Z,15.13
2018-10-16T17:35:08.904Z,12.67
2018-10-16T17:37:37.293Z,9.10
2018-10-16T17:40:07.133Z,12.13
2018-10-16T17:42:36.775Z,13.33
2018-10-16T17:45:05.811Z,11.40
2018-10-16T17:47:34.114Z,10.10
2018-10-16T17:50:02.458Z,12.60
2018-10-16T17:52:30.723Z,13.93
2018-10-16T17:54:59.149Z,12.10
2018-10-16T17:57:27.525Z,11.80
2018-10-16T17:59:55.854Z,11.83
2018-10-16T18:02:24.227Z,16.27
2018-10-16T18:04:52.563Z,12.80
2018-10-16T18:07:20.870Z,10.47
2018-10-16T18:09:49.219Z,12.10
2018-10-16T18:12:17.567Z,18.27
2018-10-16T18:14:45.868Z,13.73
2018-10-16T18:17:14.127Z,16.40
2018-10-16T18:19:42.541Z,12.40
2018-10-16T18:22:10.838Z,14.03
2018-10-16T18:24:39.172Z,13.90
2018-10-16T18:27:07.642Z,15.93
2018-10-16T18:29:35.919Z,14.23
2018-10-16T18:32:04.439Z,12.97
2018-10-16T18:34:32.763Z,14.60
2018-10-16T18:37:01.127Z,13.63
2018-10-16T18:39:29.551Z,14.60
2018-10-16T18:41:57.805Z,16.47
2018-10-16T18:44:26.153Z,12.03
2018-10-16T18:46:54.456Z,17.67
2018-10-16T18:49:22.773Z,17.50
2018-10-16T18:51:52.137Z,18.10
2018-10-16T18:54:20.601Z,13.43
2018-10-16T18:56:48.878Z,11.17
2018-10-16T18:59:17.257Z,15.60
2018-10-16T19:01:45.565Z,11.27
2018-10-16T19:04:13.953Z,16.73
2018-10-16T19:06:42.308Z,15.87
2018-10-16T19:09:12.101Z,17.30
2018-10-16T19:11:40.446Z,15.93
2018-10-16T19:14:08.774Z,15.10
2018-10-16T19:16:37.337Z,15.87
2018-10-16T19:19:05.774Z,16.97
2018-10-16T19:21:34.110Z,17.30
2018-10-16T19:24:02.487Z,13.67
2018-10-16T19:26:30.927Z,16.00
2018-10-16T19:28:59.247Z,13.90
2018-10-16T19:31:27.588Z,16.80
2018-10-16T19:33:56.027Z,18.23
2018-10-16T19:36:24.443Z,12.60
2018-10-16T19:38:52.695Z,17.00
2018-10-16T19:41:21.061Z,16.83
2018-10-16T19:43:49.380Z,21.30
2018-10-16T19:46:17.701Z,17.10
2018-10-16T19:48:46.067Z,14.90
2018-10-16T19:51:14.707Z,15.83
2018-10-16T19:53:43.035Z,13.00
2018-10-16T19:56:11.615Z,15.20
2018-10-16T19:58:39.922Z,16.20
2018-10-16T20:01:08.315Z,13.60
2018-10-16T20:03:36.654Z,14.43
2018-10-16T20:06:05.050Z,17.87
2018-10-16T20:08:33.335Z,13.33
2018-10-16T20:11:01.647Z,12.80
2018-10-16T20:13:29.915Z,18.23
2018-10-16T20:15:58.254Z,14.60
2018-10-16T20:18:26.561Z,15.60
2018-10-16T20:20:54.873Z,19.93
2018-10-16T20:23:23.363Z,15.40
2018-10-16T20:25:51.673Z,17.03
2018-10-16T20:28:20.033Z,18.40
2018-10-16T20:30:48.323Z,21.33
2018-10-16T20:33:16.663Z,17.70
2018-10-16T20:35:44.938Z,17.63
2018-10-16T20:38:13.274Z,21.10
2018-10-16T20:40:41.567Z,22.60
2018-10-16T20:43:09.926Z,17.30
2018-10-16T20:45:38.174Z,15.20
2018-10-16T20:48:06.531Z,16.40
2018-10-16T20:50:35.014Z,17.97
2018-10-16T20:53:03.563Z,14.57
2018-10-16T20:55:31.879Z,14.03
2018-10-16T20:58:00.185Z,16.23
2018-10-16T21:00:28.689Z,16.00
2018-10-16T21:02:57.023Z,18.73
2018-10-16T21:05:25.569Z,16.27
2018-10-16T21:07:53.629Z,18.07
2018-10-16T21:10:21.948Z,17.40
2018-10-16T21:12:50.246Z,20.63
2018-10-16T21:15:18.515Z,17.73
2018-10-16T21:17:46.843Z,19.17
2018-10-16T21:20:15.165Z,17.90
2018-10-16T21:22:43.506Z,17.20
2018-10-16T21:25:11.899Z,22.27
2018-10-16T21:27:40.143Z,21.30
2018-10-16T21:30:09.282Z,21.30
2018-10-16T21:32:37.662Z,20.50
2018-10-16T21:35:06.371Z,21.93
2018-10-16T21:37:35.692Z,20.30
2018-10-16T21:40:04.028Z,15.93
2018-10-16T21:42:32.316Z,23.40
2018-10-16T21:45:00.577Z,18.77
2018-10-16T21:47:28.879Z,18.30
2018-10-16T21:49:57.164Z,19.70
2018-10-16T21:52:25.509Z,19.90
2018-10-16T21:54:53.901Z,22.90
2018-10-16T21:57:22.117Z,19.07
2018-10-16T21:59:50.364Z,23.60
2018-10-16T22:02:55.343Z,25.73
2018-10-16T22:05:24.556Z,22.67
2018-10-16T22:07:55.165Z,20.17
2018-10-16T22:10:23.724Z,19.53
2018-10-16T22:12:52.191Z,20.50
2018-10-16T22:15:21.253Z,19.80
2018-10-16T22:17:49.978Z,19.63
2018-10-16T22:20:18.235Z,21.13
2018-10-16T22:22:47.027Z,21.53
2018-10-16T22:25:15.830Z,22.30
2018-10-16T22:27:44.135Z,22.00
2018-10-16T22:30:12.464Z,18.90
2018-10-16T22:32:40.795Z,16.40
2018-10-16T22:35:10.485Z,16.60
2018-10-16T22:37:38.851Z,24.70
2018-10-16T22:40:08.298Z,22.37
2018-10-16T22:42:36.821Z,19.27
2018-10-16T22:45:06.244Z,22.40
2018-10-16T22:47:34.549Z,19.30
2018-10-16T22:50:02.933Z,24.27
2018-10-16T22:52:31.259Z,20.07
2018-10-16T22:54:59.581Z,19.27
2018-10-16T22:57:27.838Z,18.63
2018-10-16T22:59:56.193Z,22.27
2018-10-16T23:02:24.516Z,21.23
2018-10-16T23:04:52.786Z,25.40
2018-10-16T23:07:21.093Z,22.53
2018-10-16T23:09:49.361Z,19.03
2018-10-16T23:12:17.678Z,20.60
2018-10-16T23:14:45.952Z,20.50
2018-10-16T23:17:14.206Z,20.70
2018-10-16T23:19:42.546Z,18.13
2018-10-16T23:22:10.811Z,19.90
2018-10-16T23:24:39.092Z,20.53
2018-10-16T23:27:07.396Z,23.67
2018-10-16T23:29:35.771Z,22.90
2018-10-16T23:32:04.056Z,25.80
2018-10-16T23:34:32.341Z,21.57
2018-10-16T23:37:00.697Z,19.77
2018-10-16T23:39:28.991Z,20.53
2018-10-16T23:41:57.307Z,21.40
2018-10-16T23:44:25.607Z,20.67
2018-10-16T23:46:54.055Z,23.10
2018-10-16T23:49:22.276Z,22.03
2018-10-16T23:51:50.615Z,23.80
2018-10-16T23:54:18.912Z,22.93
2018-10-16T23:56:47.199Z,24.80
2018-10-16T23:59:15.569Z,21.30
